sensor_id;sensor_type;location;lat;lon;timestamp;temperature;humidity
22288;DHT22;11312;51.464;6.968;2023-04-21T00:02:02;8.70;99.90
22288;DHT22;11312;51.464;6.968;2023-04-21T00:04:27;8.50;99.90
22288;DHT22;11312;51.464;6.968;2023-04-21T00:06:53;8.50;99.90
22288;DHT22;11312;51.464;6.968;2023-04-21T00:09:20;8.40;99.90
22288;DHT22;11312;51.464;6.968;2023-04-21T00:11:46;8.10;99.90
22288;DHT22;11312;51.464;6.968;2023-04-21T00:14:11;8.00;99.90
22288;DHT22;11312;51.464;6.968;2023-04-21T00:16:37;8.00;99.90
22288;DHT22;11312;51.464;6.968;2023-04-21T00:19:03;7.90;99.90
22288;DHT22;11312;51.464;6.968;2023-04-21T00:21:33;8.00;99.90
22288;DHT22;11312;51.464;6.968;2023-04-21T00:23:58;8.20;99.90
22288;DHT22;11312;51.464;6.968;2023-04-21T00:26:24;8.10;99.90
22288;DHT22;11312;51.464;6.968;2023-04-21T00:28:49;8.00;99.90
22288;DHT22;11312;51.464;6.968;2023-04-21T00:31:15;8.00;99.90
22288;DHT22;11312;51.464;6.968;2023-04-21T00:33:41;8.30;99.90
22288;DHT22;11312;51.464;6.968;2023-04-21T00:36:06;8.30;99.90
22288;DHT22;11312;51.464;6.968;2023-04-21T00:38:32;8.40;99.90
22288;DHT22;11312;51.464;6.968;2023-04-21T00:40:58;8.40;99.90
22288;DHT22;11312;51.464;6.968;2023-04-21T00:43:23;8.40;99.90
22288;DHT22;11312;51.464;6.968;2023-04-21T00:45:50;8.40;99.90
22288;DHT22;11312;51.464;6.968;2023-04-21T00:48:16;8.50;99.90
22288;DHT22;11312;51.464;6.968;2023-04-21T00:50:42;8.60;99.90
22288;DHT22;11312;51.464;6.968;2023-04-21T00:53:09;8.60;99.90
22288;DHT22;11312;51.464;6.968;2023-04-21T00:55:35;8.50;99.90
22288;DHT22;11312;51.464;6.968;2023-04-21T00:58:02;8.40;99.90
22288;DHT22;11312;51.464;6.968;2023-04-21T01:00:28;8.50;99.90
22288;DHT22;11312;51.464;6.968;2023-04-21T01:02:54;8.30;99.90
22288;DHT22;11312;51.464;6.968;2023-04-21T01:05:21;8.40;99.90
22288;DHT22;11312;51.464;6.968;2023-04-21T01:07:47;8.40;99.90
22288;DHT22;11312;51.464;6.968;2023-04-21T01:10:13;8.50;99.90
22288;DHT22;11312;51.464;6.968;2023-04-21T01:12:43;8.60;99.90
22288;DHT22;11312;51.464;6.968;2023-04-21T01:15:11;8.60;99.90
22288;DHT22;11312;51.464;6.968;2023-04-21T01:17:36;8.60;99.90
22288;DHT22;11312;51.464;6.968;2023-04-21T01:20:08;8.60;99.90
22288;DHT22;11312;51.464;6.968;2023-04-21T01:22:36;8.50;99.90
22288;DHT22;11312;51.464;6.968;2023-04-21T01:25:03;8.60;99.90
22288;DHT22;11312;51.464;6.968;2023-04-21T01:27:28;8.60;99.90
22288;DHT22;11312;51.464;6.968;2023-04-21T01:29:54;8.50;99.90
22288;DHT22;11312;51.464;6.968;2023-04-21T01:32:26;8.40;99.90
22288;DHT22;11312;51.464;6.968;2023-04-21T01:34:53;8.60;99.90
22288;DHT22;11312;51.464;6.968;2023-04-21T01:37:23;8.50;99.90
22288;DHT22;11312;51.464;6.968;2023-04-21T01:39:52;8.60;99.90
22288;DHT22;11312;51.464;6.968;2023-04-21T01:42:23;8.50;99.90
22288;DHT22;11312;51.464;6.968;2023-04-21T01:44:49;8.50;99.90
22288;DHT22;11312;51.464;6.968;2023-04-21T01:47:15;8.50;99.90
22288;DHT22;11312;51.464;6.968;2023-04-21T01:49:41;8.60;99.90
22288;DHT22;11312;51.464;6.968;2023-04-21T01:52:07;8.50;99.90
22288;DHT22;11312;51.464;6.968;2023-04-21T01:54:33;8.60;99.90
22288;DHT22;11312;51.464;6.968;2023-04-21T01:56:59;8.60;99.90
22288;DHT22;11312;51.464;6.968;2023-04-21T01:59:26;8.60;99.90
22288;DHT22;11312;51.464;6.968;2023-04-21T02:01:51;8.50;99.90
22288;DHT22;11312;51.464;6.968;2023-04-21T02:04:17;8.60;99.90
22288;DHT22;11312;51.464;6.968;2023-04-21T02:06:43;8.60;99.90
22288;DHT22;11312;51.464;6.968;2023-04-21T02:09:08;8.50;99.90
22288;DHT22;11312;51.464;6.968;2023-04-21T02:11:34;8.50;99.90
22288;DHT22;11312;51.464;6.968;2023-04-21T02:13:59;8.50;99.90
22288;DHT22;11312;51.464;6.968;2023-04-21T02:16:25;8.60;99.90
22288;DHT22;11312;51.464;6.968;2023-04-21T02:18:54;8.60;99.90
22288;DHT22;11312;51.464;6.968;2023-04-21T02:21:24;8.60;99.90
22288;DHT22;11312;51.464;6.968;2023-04-21T02:23:51;7.40;99.90
22288;DHT22;11312;51.464;6.968;2023-04-21T02:26:17;8.30;99.90
22288;DHT22;11312;51.464;6.968;2023-04-21T02:28:43;8.40;99.90
22288;DHT22;11312;51.464;6.968;2023-04-21T02:31:09;8.30;99.90
22288;DHT22;11312;51.464;6.968;2023-04-21T02:33:35;8.40;99.90
22288;DHT22;11312;51.464;6.968;2023-04-21T02:36:01;8.40;99.90
22288;DHT22;11312;51.464;6.968;2023-04-21T02:38:26;8.50;99.90
22288;DHT22;11312;51.464;6.968;2023-04-21T02:40:52;8.60;99.90
22288;DHT22;11312;51.464;6.968;2023-04-21T02:43:18;8.50;99.90
22288;DHT22;11312;51.464;6.968;2023-04-21T02:45:43;8.60;99.90
22288;DHT22;11312;51.464;6.968;2023-04-21T02:48:09;8.60;99.90
22288;DHT22;11312;51.464;6.968;2023-04-21T02:50:35;8.70;99.90
22288;DHT22;11312;51.464;6.968;2023-04-21T02:53:00;8.70;99.90
22288;DHT22;11312;51.464;6.968;2023-04-21T02:55:26;8.60;99.90
22288;DHT22;11312;51.464;6.968;2023-04-21T02:57:52;8.70;99.90
22288;DHT22;11312;51.464;6.968;2023-04-21T03:00:17;8.60;99.90
22288;DHT22;11312;51.464;6.968;2023-04-21T03:02:45;8.70;99.90
22288;DHT22;11312;51.464;6.968;2023-04-21T03:05:10;8.70;99.90
22288;DHT22;11312;51.464;6.968;2023-04-21T03:07:37;8.50;99.90
22288;DHT22;11312;51.464;6.968;2023-04-21T03:10:03;8.60;99.90
22288;DHT22;11312;51.464;6.968;2023-04-21T03:12:28;8.60;99.90
22288;DHT22;11312;51.464;6.968;2023-04-21T03:14:54;8.50;99.90
22288;DHT22;11312;51.464;6.968;2023-04-21T03:17:20;8.50;99.90
22288;DHT22;11312;51.464;6.968;2023-04-21T03:19:46;8.60;99.90
22288;DHT22;11312;51.464;6.968;2023-04-21T03:22:11;8.50;99.90
22288;DHT22;11312;51.464;6.968;2023-04-21T03:24:37;8.50;99.90
22288;DHT22;11312;51.464;6.968;2023-04-21T03:27:04;8.40;99.90
22288;DHT22;11312;51.464;6.968;2023-04-21T03:29:30;8.20;99.90
22288;DHT22;11312;51.464;6.968;2023-04-21T03:31:56;8.40;99.90
22288;DHT22;11312;51.464;6.968;2023-04-21T03:34:21;8.40;99.90
22288;DHT22;11312;51.464;6.968;2023-04-21T03:36:47;8.30;99.90
22288;DHT22;11312;51.464;6.968;2023-04-21T03:39:12;8.20;99.90
22288;DHT22;11312;51.464;6.968;2023-04-21T03:41:38;8.40;99.90
22288;DHT22;11312;51.464;6.968;2023-04-21T03:44:04;8.40;99.90
22288;DHT22;11312;51.464;6.968;2023-04-21T03:46:29;8.40;99.90
22288;DHT22;11312;51.464;6.968;2023-04-21T03:48:55;8.50;99.90
22288;DHT22;11312;51.464;6.968;2023-04-21T03:51:20;8.30;99.90
22288;DHT22;11312;51.464;6.968;2023-04-21T03:53:46;8.20;99.90
22288;DHT22;11312;51.464;6.968;2023-04-21T03:56:12;8.20;99.90
22288;DHT22;11312;51.464;6.968;2023-04-21T03:58:37;8.30;99.90
22288;DHT22;11312;51.464;6.968;2023-04-21T04:01:06;8.30;99.90
22288;DHT22;11312;51.464;6.968;2023-04-21T04:03:32;8.30;99.90
22288;DHT22;11312;51.464;6.968;2023-04-21T04:05:58;8.40;99.90
22288;DHT22;11312;51.464;6.968;2023-04-21T04:08:23;8.50;99.90
22288;DHT22;11312;51.464;6.968;2023-04-21T04:10:49;8.60;99.90
22288;DHT22;11312;51.464;6.968;2023-04-21T04:13:15;8.60;99.90
22288;DHT22;11312;51.464;6.968;2023-04-21T04:15:41;8.60;99.90
22288;DHT22;11312;51.464;6.968;2023-04-21T04:18:06;8.50;99.90
22288;DHT22;11312;51.464;6.968;2023-04-21T04:20:32;8.60;99.90
22288;DHT22;11312;51.464;6.968;2023-04-21T04:22:57;8.60;99.90
22288;DHT22;11312;51.464;6.968;2023-04-21T04:25:23;8.60;99.90
22288;DHT22;11312;51.464;6.968;2023-04-21T04:27:49;8.40;99.90
22288;DHT22;11312;51.464;6.968;2023-04-21T04:30:15;8.30;99.90
22288;DHT22;11312;51.464;6.968;2023-04-21T04:32:41;8.30;99.90
22288;DHT22;11312;51.464;6.968;2023-04-21T04:35:08;8.30;99.90
22288;DHT22;11312;51.464;6.968;2023-04-21T04:37:38;8.30;99.90
22288;DHT22;11312;51.464;6.968;2023-04-21T04:40:04;8.30;99.90
22288;DHT22;11312;51.464;6.968;2023-04-21T04:42:35;8.30;99.90
22288;DHT22;11312;51.464;6.968;2023-04-21T04:45:01;8.30;99.90
22288;DHT22;11312;51.464;6.968;2023-04-21T04:47:28;8.20;99.90
22288;DHT22;11312;51.464;6.968;2023-04-21T04:49:54;8.30;99.90
22288;DHT22;11312;51.464;6.968;2023-04-21T04:52:19;8.30;99.90
22288;DHT22;11312;51.464;6.968;2023-04-21T04:54:45;8.30;99.90
22288;DHT22;11312;51.464;6.968;2023-04-21T04:57:11;8.40;99.90
22288;DHT22;11312;51.464;6.968;2023-04-21T04:59:36;8.40;99.90
22288;DHT22;11312;51.464;6.968;2023-04-21T05:02:02;8.30;99.90
22288;DHT22;11312;51.464;6.968;2023-04-21T05:04:28;8.40;99.90
22288;DHT22;11312;51.464;6.968;2023-04-21T05:06:54;8.40;99.90
22288;DHT22;11312;51.464;6.968;2023-04-21T05:09:20;8.40;99.90
22288;DHT22;11312;51.464;6.968;2023-04-21T05:11:46;8.40;99.90
22288;DHT22;11312;51.464;6.968;2023-04-21T05:14:11;8.40;99.90
22288;DHT22;11312;51.464;6.968;2023-04-21T05:16:37;8.50;99.90
22288;DHT22;11312;51.464;6.968;2023-04-21T05:19:03;8.40;99.90
22288;DHT22;11312;51.464;6.968;2023-04-21T05:21:28;8.40;99.90
22288;DHT22;11312;51.464;6.968;2023-04-21T05:23:56;8.40;99.90
22288;DHT22;11312;51.464;6.968;2023-04-21T05:26:22;8.30;99.90
22288;DHT22;11312;51.464;6.968;2023-04-21T05:28:48;8.40;99.90
22288;DHT22;11312;51.464;6.968;2023-04-21T05:31:14;8.40;99.90
22288;DHT22;11312;51.464;6.968;2023-04-21T05:33:40;8.40;99.90
22288;DHT22;11312;51.464;6.968;2023-04-21T05:36:08;8.40;99.90
22288;DHT22;11312;51.464;6.968;2023-04-21T05:38:35;8.50;99.90
22288;DHT22;11312;51.464;6.968;2023-04-21T05:41:01;8.60;99.90
22288;DHT22;11312;51.464;6.968;2023-04-21T05:43:27;8.90;99.90
22288;DHT22;11312;51.464;6.968;2023-04-21T05:45:52;8.90;99.90
22288;DHT22;11312;51.464;6.968;2023-04-21T05:48:18;8.90;99.90
22288;DHT22;11312;51.464;6.968;2023-04-21T05:50:44;8.90;99.90
22288;DHT22;11312;51.464;6.968;2023-04-21T05:53:10;8.80;99.90
22288;DHT22;11312;51.464;6.968;2023-04-21T05:55:36;8.70;99.90
22288;DHT22;11312;51.464;6.968;2023-04-21T05:58:02;8.80;99.90
22288;DHT22;11312;51.464;6.968;2023-04-21T06:00:28;9.40;99.90
22288;DHT22;11312;51.464;6.968;2023-04-21T06:02:54;9.60;99.90
22288;DHT22;11312;51.464;6.968;2023-04-21T06:05:20;9.60;99.90
22288;DHT22;11312;51.464;6.968;2023-04-21T06:07:45;9.70;99.90
22288;DHT22;11312;51.464;6.968;2023-04-21T06:10:12;10.10;99.90
22288;DHT22;11312;51.464;6.968;2023-04-21T06:12:38;10.30;99.90
22288;DHT22;11312;51.464;6.968;2023-04-21T06:15:04;10.70;99.90
22288;DHT22;11312;51.464;6.968;2023-04-21T06:17:30;10.80;99.90
22288;DHT22;11312;51.464;6.968;2023-04-21T06:19:55;11.00;99.90
22288;DHT22;11312;51.464;6.968;2023-04-21T06:22:24;11.50;99.90
22288;DHT22;11312;51.464;6.968;2023-04-21T06:24:50;11.70;99.90
22288;DHT22;11312;51.464;6.968;2023-04-21T06:27:16;11.60;99.90
22288;DHT22;11312;51.464;6.968;2023-04-21T06:29:42;11.20;99.90
22288;DHT22;11312;51.464;6.968;2023-04-21T06:32:11;11.50;99.90
22288;DHT22;11312;51.464;6.968;2023-04-21T06:34:37;11.70;99.90
22288;DHT22;11312;51.464;6.968;2023-04-21T06:37:03;11.30;99.90
22288;DHT22;11312;51.464;6.968;2023-04-21T06:39:29;11.20;99.90
22288;DHT22;11312;51.464;6.968;2023-04-21T06:41:54;11.40;99.90
22288;DHT22;11312;51.464;6.968;2023-04-21T06:44:22;11.20;99.90
22288;DHT22;11312;51.464;6.968;2023-04-21T06:46:48;11.20;99.90
22288;DHT22;11312;51.464;6.968;2023-04-21T06:49:13;11.00;99.90
22288;DHT22;11312;51.464;6.968;2023-04-21T06:51:39;10.90;99.90
22288;DHT22;11312;51.464;6.968;2023-04-21T06:54:05;10.70;99.90
22288;DHT22;11312;51.464;6.968;2023-04-21T06:56:30;10.50;99.90
22288;DHT22;11312;51.464;6.968;2023-04-21T06:58:57;10.60;99.90
22288;DHT22;11312;51.464;6.968;2023-04-21T07:01:22;10.60;99.90
22288;DHT22;11312;51.464;6.968;2023-04-21T07:03:49;10.60;99.90
22288;DHT22;11312;51.464;6.968;2023-04-21T07:06:15;10.70;99.90
22288;DHT22;11312;51.464;6.968;2023-04-21T07:08:40;10.80;99.90
22288;DHT22;11312;51.464;6.968;2023-04-21T07:11:06;10.80;99.90
22288;DHT22;11312;51.464;6.968;2023-04-21T07:13:32;10.80;99.90
22288;DHT22;11312;51.464;6.968;2023-04-21T07:15:57;10.90;99.90
22288;DHT22;11312;51.464;6.968;2023-04-21T07:18:23;10.80;99.90
22288;DHT22;11312;51.464;6.968;2023-04-21T07:20:49;10.80;99.90
22288;DHT22;11312;51.464;6.968;2023-04-21T07:23:15;10.90;99.90
22288;DHT22;11312;51.464;6.968;2023-04-21T07:25:40;11.00;99.90
22288;DHT22;11312;51.464;6.968;2023-04-21T07:28:06;10.90;99.90
22288;DHT22;11312;51.464;6.968;2023-04-21T07:30:32;11.00;99.90
22288;DHT22;11312;51.464;6.968;2023-04-21T07:32:58;11.10;99.90
22288;DHT22;11312;51.464;6.968;2023-04-21T07:35:24;11.10;99.90
22288;DHT22;11312;51.464;6.968;2023-04-21T07:37:50;11.40;99.90
22288;DHT22;11312;51.464;6.968;2023-04-21T07:40:15;11.50;99.90
22288;DHT22;11312;51.464;6.968;2023-04-21T07:42:41;11.60;99.90
22288;DHT22;11312;51.464;6.968;2023-04-21T07:45:07;11.50;99.90
22288;DHT22;11312;51.464;6.968;2023-04-21T07:47:33;11.50;99.90
22288;DHT22;11312;51.464;6.968;2023-04-21T07:49:58;11.60;99.90
22288;DHT22;11312;51.464;6.968;2023-04-21T07:52:24;11.60;99.90
22288;DHT22;11312;51.464;6.968;2023-04-21T07:54:50;11.60;99.90
22288;DHT22;11312;51.464;6.968;2023-04-21T07:57:15;11.70;99.90
22288;DHT22;11312;51.464;6.968;2023-04-21T07:59:41;11.40;99.90
22288;DHT22;11312;51.464;6.968;2023-04-21T08:02:07;11.60;99.90
22288;DHT22;11312;51.464;6.968;2023-04-21T08:04:33;11.60;99.90
22288;DHT22;11312;51.464;6.968;2023-04-21T08:06:59;11.40;99.90
22288;DHT22;11312;51.464;6.968;2023-04-21T08:09:25;11.50;99.90
22288;DHT22;11312;51.464;6.968;2023-04-21T08:11:51;11.60;99.90
22288;DHT22;11312;51.464;6.968;2023-04-21T08:14:16;11.70;99.90
22288;DHT22;11312;51.464;6.968;2023-04-21T08:16:42;11.40;99.90
22288;DHT22;11312;51.464;6.968;2023-04-21T08:19:08;11.10;99.90
22288;DHT22;11312;51.464;6.968;2023-04-21T08:21:35;11.20;99.90
22288;DHT22;11312;51.464;6.968;2023-04-21T08:24:00;11.50;99.90
22288;DHT22;11312;51.464;6.968;2023-04-21T08:26:26;11.80;99.90
22288;DHT22;11312;51.464;6.968;2023-04-21T08:28:54;12.00;99.90
22288;DHT22;11312;51.464;6.968;2023-04-21T08:31:21;12.10;99.90
22288;DHT22;11312;51.464;6.968;2023-04-21T08:33:46;12.00;99.90
22288;DHT22;11312;51.464;6.968;2023-04-21T08:36:12;11.90;99.90
22288;DHT22;11312;51.464;6.968;2023-04-21T08:38:38;11.80;99.90
22288;DHT22;11312;51.464;6.968;2023-04-21T08:41:04;12.00;99.90
22288;DHT22;11312;51.464;6.968;2023-04-21T08:43:30;12.10;99.90
22288;DHT22;11312;51.464;6.968;2023-04-21T08:45:56;12.20;99.90
22288;DHT22;11312;51.464;6.968;2023-04-21T08:48:22;12.20;99.90
22288;DHT22;11312;51.464;6.968;2023-04-21T08:50:50;12.40;99.90
22288;DHT22;11312;51.464;6.968;2023-04-21T08:53:16;12.50;99.90
22288;DHT22;11312;51.464;6.968;2023-04-21T08:55:42;12.70;99.90
22288;DHT22;11312;51.464;6.968;2023-04-21T08:58:08;12.80;99.90
22288;DHT22;11312;51.464;6.968;2023-04-21T09:00:37;12.70;99.90
22288;DHT22;11312;51.464;6.968;2023-04-21T09:03:02;12.80;99.90
22288;DHT22;11312;51.464;6.968;2023-04-21T09:05:31;12.70;99.90
22288;DHT22;11312;51.464;6.968;2023-04-21T09:08:11;12.50;99.90
22288;DHT22;11312;51.464;6.968;2023-04-21T09:10:43;12.60;99.90
22288;DHT22;11312;51.464;6.968;2023-04-21T09:13:09;12.50;99.90
22288;DHT22;11312;51.464;6.968;2023-04-21T09:15:46;12.70;99.90
22288;DHT22;11312;51.464;6.968;2023-04-21T09:18:14;12.80;99.90
22288;DHT22;11312;51.464;6.968;2023-04-21T09:20:41;12.90;99.90
22288;DHT22;11312;51.464;6.968;2023-04-21T09:23:08;12.70;99.90
22288;DHT22;11312;51.464;6.968;2023-04-21T09:25:37;12.90;99.90
22288;DHT22;11312;51.464;6.968;2023-04-21T09:28:13;13.00;99.90
22288;DHT22;11312;51.464;6.968;2023-04-21T09:30:41;13.20;99.90
22288;DHT22;11312;51.464;6.968;2023-04-21T09:33:07;13.40;99.90
22288;DHT22;11312;51.464;6.968;2023-04-21T09:35:39;13.10;99.90
22288;DHT22;11312;51.464;6.968;2023-04-21T09:38:12;13.30;99.90
22288;DHT22;11312;51.464;6.968;2023-04-21T09:40:38;13.20;99.90
22288;DHT22;11312;51.464;6.968;2023-04-21T09:43:05;12.90;99.90
22288;DHT22;11312;51.464;6.968;2023-04-21T09:45:31;12.90;99.90
22288;DHT22;11312;51.464;6.968;2023-04-21T09:47:59;12.90;99.90
22288;DHT22;11312;51.464;6.968;2023-04-21T09:50:26;13.20;99.90
22288;DHT22;11312;51.464;6.968;2023-04-21T09:52:53;13.60;99.90
22288;DHT22;11312;51.464;6.968;2023-04-21T09:55:29;13.60;99.90
22288;DHT22;11312;51.464;6.968;2023-04-21T09:57:59;13.30;99.90
22288;DHT22;11312;51.464;6.968;2023-04-21T10:00:27;13.60;99.90
22288;DHT22;11312;51.464;6.968;2023-04-21T10:02:54;13.90;99.90
22288;DHT22;11312;51.464;6.968;2023-04-21T10:05:21;13.30;99.90
22288;DHT22;11312;51.464;6.968;2023-04-21T10:07:48;12.90;99.90
22288;DHT22;11312;51.464;6.968;2023-04-21T10:10:26;12.90;99.90
22288;DHT22;11312;51.464;6.968;2023-04-21T10:12:53;13.20;99.90
22288;DHT22;11312;51.464;6.968;2023-04-21T10:15:36;13.20;99.90
22288;DHT22;11312;51.464;6.968;2023-04-21T10:18:19;13.30;99.90
22288;DHT22;11312;51.464;6.968;2023-04-21T10:23:38;13.20;99.90
22288;DHT22;11312;51.464;6.968;2023-04-21T10:26:20;13.40;99.90
22288;DHT22;11312;51.464;6.968;2023-04-21T10:28:52;13.20;99.90
22288;DHT22;11312;51.464;6.968;2023-04-21T10:39:34;13.90;99.90
22288;DHT22;11312;51.464;6.968;2023-04-21T10:47:34;13.30;99.90
22288;DHT22;11312;51.464;6.968;2023-04-21T10:50:10;12.80;99.90
22288;DHT22;11312;51.464;6.968;2023-04-21T10:52:36;13.50;99.90
22288;DHT22;11312;51.464;6.968;2023-04-21T10:55:07;13.70;99.90
22288;DHT22;11312;51.464;6.968;2023-04-21T10:57:35;13.50;99.90
22288;DHT22;11312;51.464;6.968;2023-04-21T11:00:01;13.50;99.90
22288;DHT22;11312;51.464;6.968;2023-04-21T11:02:32;13.60;99.90
22288;DHT22;11312;51.464;6.968;2023-04-21T11:05:00;13.40;99.90
22288;DHT22;11312;51.464;6.968;2023-04-21T11:07:26;13.60;99.90
22288;DHT22;11312;51.464;6.968;2023-04-21T11:09:59;13.30;99.90
22288;DHT22;11312;51.464;6.968;2023-04-21T11:12:30;13.30;99.90
22288;DHT22;11312;51.464;6.968;2023-04-21T11:14:56;13.40;99.90
22288;DHT22;11312;51.464;6.968;2023-04-21T11:17:22;13.60;99.90
22288;DHT22;11312;51.464;6.968;2023-04-21T11:19:53;13.70;99.90
22288;DHT22;11312;51.464;6.968;2023-04-21T11:22:21;14.10;99.90
22288;DHT22;11312;51.464;6.968;2023-04-21T11:24:49;13.70;99.90
22288;DHT22;11312;51.464;6.968;2023-04-21T11:27:15;14.10;99.90
22288;DHT22;11312;51.464;6.968;2023-04-21T11:29:45;14.60;99.90
22288;DHT22;11312;51.464;6.968;2023-04-21T11:32:12;15.20;99.90
22288;DHT22;11312;51.464;6.968;2023-04-21T11:34:38;15.00;99.90
22288;DHT22;11312;51.464;6.968;2023-04-21T11:37:07;14.70;99.90
22288;DHT22;11312;51.464;6.968;2023-04-21T11:39:32;14.80;99.90
22288;DHT22;11312;51.464;6.968;2023-04-21T11:41:58;14.90;99.90
22288;DHT22;11312;51.464;6.968;2023-04-21T11:44:38;14.90;99.90
22288;DHT22;11312;51.464;6.968;2023-04-21T11:47:21;15.90;99.90
22288;DHT22;11312;51.464;6.968;2023-04-21T11:49:53;16.40;99.90
22288;DHT22;11312;51.464;6.968;2023-04-21T11:52:29;16.40;99.90
22288;DHT22;11312;51.464;6.968;2023-04-21T11:55:05;16.30;99.90
22288;DHT22;11312;51.464;6.968;2023-04-21T11:57:32;16.50;99.90
22288;DHT22;11312;51.464;6.968;2023-04-21T12:00:03;16.40;99.90
22288;DHT22;11312;51.464;6.968;2023-04-21T12:02:30;16.30;99.90
22288;DHT22;11312;51.464;6.968;2023-04-21T12:05:10;16.60;99.90
22288;DHT22;11312;51.464;6.968;2023-04-21T12:07:39;16.20;99.90
22288;DHT22;11312;51.464;6.968;2023-04-21T12:10:10;16.00;99.90
22288;DHT22;11312;51.464;6.968;2023-04-21T12:12:37;15.90;99.90
22288;DHT22;11312;51.464;6.968;2023-04-21T12:15:04;15.70;99.90
22288;DHT22;11312;51.464;6.968;2023-04-21T12:17:46;15.70;99.90
22288;DHT22;11312;51.464;6.968;2023-04-21T12:20:15;15.30;99.90
22288;DHT22;11312;51.464;6.968;2023-04-21T12:22:41;15.10;99.90
22288;DHT22;11312;51.464;6.968;2023-04-21T12:25:07;15.20;99.90
22288;DHT22;11312;51.464;6.968;2023-04-21T12:27:35;15.10;99.90
22288;DHT22;11312;51.464;6.968;2023-04-21T12:30:01;14.90;99.90
22288;DHT22;11312;51.464;6.968;2023-04-21T12:32:28;15.00;99.90
22288;DHT22;11312;51.464;6.968;2023-04-21T12:34:54;15.00;99.90
22288;DHT22;11312;51.464;6.968;2023-04-21T12:37:20;15.20;99.90
22288;DHT22;11312;51.464;6.968;2023-04-21T12:39:46;15.80;99.90
22288;DHT22;11312;51.464;6.968;2023-04-21T12:42:11;16.40;99.90
22288;DHT22;11312;51.464;6.968;2023-04-21T12:44:38;16.30;99.90
22288;DHT22;11312;51.464;6.968;2023-04-21T12:47:05;16.70;99.90
22288;DHT22;11312;51.464;6.968;2023-04-21T12:49:30;16.40;99.90
22288;DHT22;11312;51.464;6.968;2023-04-21T12:51:56;16.50;99.90
22288;DHT22;11312;51.464;6.968;2023-04-21T12:54:22;16.00;99.90
22288;DHT22;11312;51.464;6.968;2023-04-21T12:56:47;16.00;99.90
22288;DHT22;11312;51.464;6.968;2023-04-21T12:59:13;15.70;99.90
22288;DHT22;11312;51.464;6.968;2023-04-21T13:01:39;15.80;99.90
22288;DHT22;11312;51.464;6.968;2023-04-21T13:04:06;15.80;99.90
22288;DHT22;11312;51.464;6.968;2023-04-21T13:06:32;15.80;99.90
22288;DHT22;11312;51.464;6.968;2023-04-21T13:08:58;15.80;99.90
22288;DHT22;11312;51.464;6.968;2023-04-21T13:11:24;16.10;99.90
22288;DHT22;11312;51.464;6.968;2023-04-21T13:13:50;16.40;99.90
22288;DHT22;11312;51.464;6.968;2023-04-21T13:16:15;16.40;99.90
22288;DHT22;11312;51.464;6.968;2023-04-21T13:18:41;16.30;99.90
22288;DHT22;11312;51.464;6.968;2023-04-21T13:21:07;16.30;99.90
22288;DHT22;11312;51.464;6.968;2023-04-21T13:23:32;16.40;99.90
22288;DHT22;11312;51.464;6.968;2023-04-21T13:25:58;16.60;99.90
22288;DHT22;11312;51.464;6.968;2023-04-21T13:28:24;16.60;99.90
22288;DHT22;11312;51.464;6.968;2023-04-21T13:30:51;16.80;99.90
22288;DHT22;11312;51.464;6.968;2023-04-21T13:33:17;17.40;99.90
22288;DHT22;11312;51.464;6.968;2023-04-21T13:35:43;17.70;99.90
22288;DHT22;11312;51.464;6.968;2023-04-21T13:38:09;17.90;99.90
22288;DHT22;11312;51.464;6.968;2023-04-21T13:40:34;17.60;99.90
22288;DHT22;11312;51.464;6.968;2023-04-21T13:43:01;17.40;99.90
22288;DHT22;11312;51.464;6.968;2023-04-21T13:45:27;17.30;99.90
22288;DHT22;11312;51.464;6.968;2023-04-21T13:47:52;17.60;99.90
22288;DHT22;11312;51.464;6.968;2023-04-21T13:50:18;17.50;99.90
22288;DHT22;11312;51.464;6.968;2023-04-21T13:52:44;17.60;99.90
22288;DHT22;11312;51.464;6.968;2023-04-21T13:55:10;18.10;99.90
22288;DHT22;11312;51.464;6.968;2023-04-21T13:57:36;18.40;99.90
22288;DHT22;11312;51.464;6.968;2023-04-21T14:00:02;19.20;99.90
22288;DHT22;11312;51.464;6.968;2023-04-21T14:02:30;19.30;99.90
22288;DHT22;11312;51.464;6.968;2023-04-21T14:04:55;19.30;99.90
22288;DHT22;11312;51.464;6.968;2023-04-21T14:07:21;18.90;99.90
22288;DHT22;11312;51.464;6.968;2023-04-21T14:09:49;18.50;99.90
22288;DHT22;11312;51.464;6.968;2023-04-21T14:12:14;19.60;99.90
22288;DHT22;11312;51.464;6.968;2023-04-21T14:14:40;20.30;99.90
22288;DHT22;11312;51.464;6.968;2023-04-21T14:17:06;19.00;99.90
22288;DHT22;11312;51.464;6.968;2023-04-21T14:19:32;18.40;99.90
22288;DHT22;11312;51.464;6.968;2023-04-21T14:21:58;18.60;99.90
22288;DHT22;11312;51.464;6.968;2023-04-21T14:24:24;18.90;99.90
22288;DHT22;11312;51.464;6.968;2023-04-21T14:26:53;19.40;99.90
22288;DHT22;11312;51.464;6.968;2023-04-21T14:29:19;18.90;99.90
22288;DHT22;11312;51.464;6.968;2023-04-21T14:31:44;18.80;99.90
22288;DHT22;11312;51.464;6.968;2023-04-21T14:34:10;18.90;99.90
22288;DHT22;11312;51.464;6.968;2023-04-21T14:36:36;19.40;99.90
22288;DHT22;11312;51.464;6.968;2023-04-21T14:39:02;19.50;99.90
22288;DHT22;11312;51.464;6.968;2023-04-21T14:41:27;19.80;99.90
22288;DHT22;11312;51.464;6.968;2023-04-21T14:43:53;19.20;99.90
22288;DHT22;11312;51.464;6.968;2023-04-21T14:46:21;19.20;99.90
22288;DHT22;11312;51.464;6.968;2023-04-21T14:48:46;18.90;99.90
22288;DHT22;11312;51.464;6.968;2023-04-21T14:51:12;18.50;99.90
22288;DHT22;11312;51.464;6.968;2023-04-21T14:53:38;18.00;99.90
22288;DHT22;11312;51.464;6.968;2023-04-21T14:56:05;18.20;99.90
22288;DHT22;11312;51.464;6.968;2023-04-21T14:58:31;18.20;99.90
22288;DHT22;11312;51.464;6.968;2023-04-21T15:00:56;18.20;99.90
22288;DHT22;11312;51.464;6.968;2023-04-21T15:03:22;18.20;99.90
22288;DHT22;11312;51.464;6.968;2023-04-21T15:05:48;18.10;99.90
22288;DHT22;11312;51.464;6.968;2023-04-21T15:08:14;18.00;99.90
22288;DHT22;11312;51.464;6.968;2023-04-21T15:10:43;18.00;99.90
22288;DHT22;11312;51.464;6.968;2023-04-21T15:13:09;18.00;99.90
22288;DHT22;11312;51.464;6.968;2023-04-21T15:15:36;17.90;99.90
22288;DHT22;11312;51.464;6.968;2023-04-21T15:18:01;17.90;99.90
22288;DHT22;11312;51.464;6.968;2023-04-21T15:20:27;17.80;99.90
22288;DHT22;11312;51.464;6.968;2023-04-21T15:22:53;17.70;99.90
22288;DHT22;11312;51.464;6.968;2023-04-21T15:25:18;17.90;99.90
22288;DHT22;11312;51.464;6.968;2023-04-21T15:27:44;18.00;99.90
22288;DHT22;11312;51.464;6.968;2023-04-21T15:30:10;18.50;99.90
22288;DHT22;11312;51.464;6.968;2023-04-21T15:32:36;18.50;99.90
22288;DHT22;11312;51.464;6.968;2023-04-21T15:35:02;18.20;99.90
22288;DHT22;11312;51.464;6.968;2023-04-21T15:37:28;18.00;99.90
22288;DHT22;11312;51.464;6.968;2023-04-21T15:39:53;17.90;99.90
22288;DHT22;11312;51.464;6.968;2023-04-21T15:42:19;17.80;99.90
22288;DHT22;11312;51.464;6.968;2023-04-21T15:44:45;17.70;99.90
22288;DHT22;11312;51.464;6.968;2023-04-21T15:47:11;17.70;99.90
22288;DHT22;11312;51.464;6.968;2023-04-21T15:49:37;17.70;99.90
22288;DHT22;11312;51.464;6.968;2023-04-21T15:52:03;17.80;99.90